sensor_id;sensor_type;location;lat;lon;timestamp;P1;durP1;ratioP1;P2;durP2;ratioP2
78799;SDS011;68148;55.328;86.106;2023-04-06T00:01:27;13.07;;;4.85;;
78799;SDS011;68148;55.328;86.106;2023-04-06T00:03:53;16.38;;;5.90;;
78799;SDS011;68148;55.328;86.106;2023-04-06T00:06:19;18.27;;;5.25;;
78799;SDS011;68148;55.328;86.106;2023-04-06T00:08:52;26.15;;;6.38;;
78799;SDS011;68148;55.328;86.106;2023-04-06T00:11:18;26.10;;;6.78;;
78799;SDS011;68148;55.328;86.106;2023-04-06T00:13:44;25.75;;;6.63;;
78799;SDS011;68148;55.328;86.106;2023-04-06T00:16:10;31.70;;;6.53;;
78799;SDS011;68148;55.328;86.106;2023-04-06T00:18:36;44.20;;;6.78;;
78799;SDS011;68148;55.328;86.106;2023-04-06T00:21:02;21.05;;;5.03;;
78799;SDS011;68148;55.328;86.106;2023-04-06T00:23:28;31.88;;;7.10;;
78799;SDS011;68148;55.328;86.106;2023-04-06T00:25:54;35.03;;;6.85;;
78799;SDS011;68148;55.328;86.106;2023-04-06T00:28:20;27.45;;;7.43;;
78799;SDS011;68148;55.328;86.106;2023-04-06T00:30:46;16.20;;;6.30;;
78799;SDS011;68148;55.328;86.106;2023-04-06T00:33:12;37.30;;;7.47;;
78799;SDS011;68148;55.328;86.106;2023-04-06T00:35:38;45.65;;;7.10;;
78799;SDS011;68148;55.328;86.106;2023-04-06T00:38:04;18.65;;;6.72;;
78799;SDS011;68148;55.328;86.106;2023-04-06T00:40:30;32.15;;;8.48;;
78799;SDS011;68148;55.328;86.106;2023-04-06T00:42:56;19.70;;;7.40;;
78799;SDS011;68148;55.328;86.106;2023-04-06T00:45:21;42.17;;;10.38;;
78799;SDS011;68148;55.328;86.106;2023-04-06T00:47:47;47.75;;;9.88;;
78799;SDS011;68148;55.328;86.106;2023-04-06T00:50:13;41.30;;;8.70;;
78799;SDS011;68148;55.328;86.106;2023-04-06T00:52:39;29.52;;;8.68;;
78799;SDS011;68148;55.328;86.106;2023-04-06T00:55:05;34.00;;;9.32;;
78799;SDS011;68148;55.328;86.106;2023-04-06T00:57:32;34.28;;;9.57;;
78799;SDS011;68148;55.328;86.106;2023-04-06T00:59:58;54.08;;;8.63;;
78799;SDS011;68148;55.328;86.106;2023-04-06T01:02:24;43.90;;;8.75;;
78799;SDS011;68148;55.328;86.106;2023-04-06T01:04:50;38.13;;;8.38;;
78799;SDS011;68148;55.328;86.106;2023-04-06T01:07:16;36.72;;;8.57;;
78799;SDS011;68148;55.328;86.106;2023-04-06T01:09:42;39.85;;;7.38;;
78799;SDS011;68148;55.328;86.106;2023-04-06T01:12:08;28.60;;;7.38;;
78799;SDS011;68148;55.328;86.106;2023-04-06T01:14:34;49.00;;;7.35;;
78799;SDS011;68148;55.328;86.106;2023-04-06T01:17:00;26.38;;;6.75;;
78799;SDS011;68148;55.328;86.106;2023-04-06T01:19:26;27.17;;;7.13;;
78799;SDS011;68148;55.328;86.106;2023-04-06T01:21:52;32.50;;;6.72;;
78799;SDS011;68148;55.328;86.106;2023-04-06T01:24:18;27.85;;;6.10;;
78799;SDS011;68148;55.328;86.106;2023-04-06T01:26:44;41.42;;;7.90;;
78799;SDS011;68148;55.328;86.106;2023-04-06T01:29:10;35.35;;;7.38;;
78799;SDS011;68148;55.328;86.106;2023-04-06T01:31:37;31.92;;;6.28;;
78799;SDS011;68148;55.328;86.106;2023-04-06T01:34:04;44.35;;;6.90;;
78799;SDS011;68148;55.328;86.106;2023-04-06T01:36:31;38.83;;;7.70;;
78799;SDS011;68148;55.328;86.106;2023-04-06T01:38:57;27.48;;;6.93;;
78799;SDS011;68148;55.328;86.106;2023-04-06T01:41:23;26.30;;;7.15;;
78799;SDS011;68148;55.328;86.106;2023-04-06T01:43:49;77.55;;;9.38;;
78799;SDS011;68148;55.328;86.106;2023-04-06T01:46:15;30.80;;;7.20;;
78799;SDS011;68148;55.328;86.106;2023-04-06T01:48:41;31.90;;;7.80;;
78799;SDS011;68148;55.328;86.106;2023-04-06T01:51:07;22.35;;;6.93;;
78799;SDS011;68148;55.328;86.106;2023-04-06T01:53:33;23.65;;;6.25;;
78799;SDS011;68148;55.328;86.106;2023-04-06T01:55:59;28.67;;;7.30;;
78799;SDS011;68148;55.328;86.106;2023-04-06T01:58:25;27.75;;;7.18;;
78799;SDS011;68148;55.328;86.106;2023-04-06T02:00:51;38.75;;;7.47;;
78799;SDS011;68148;55.328;86.106;2023-04-06T02:03:17;27.55;;;6.63;;
78799;SDS011;68148;55.328;86.106;2023-04-06T02:05:42;32.53;;;8.02;;
78799;SDS011;68148;55.328;86.106;2023-04-06T02:08:08;30.50;;;9.02;;
78799;SDS011;68148;55.328;86.106;2023-04-06T02:10:34;41.05;;;7.90;;
78799;SDS011;68148;55.328;86.106;2023-04-06T02:13:01;31.98;;;7.63;;
78799;SDS011;68148;55.328;86.106;2023-04-06T02:15:28;47.22;;;8.88;;
78799;SDS011;68148;55.328;86.106;2023-04-06T02:17:54;42.83;;;8.50;;
78799;SDS011;68148;55.328;86.106;2023-04-06T02:20:19;35.95;;;9.43;;
78799;SDS011;68148;55.328;86.106;2023-04-06T02:22:45;40.03;;;9.07;;
78799;SDS011;68148;55.328;86.106;2023-04-06T02:25:11;35.72;;;8.68;;
78799;SDS011;68148;55.328;86.106;2023-04-06T02:27:37;32.05;;;10.00;;
78799;SDS011;68148;55.328;86.106;2023-04-06T02:30:03;27.80;;;8.43;;
78799;SDS011;68148;55.328;86.106;2023-04-06T02:32:29;39.05;;;10.15;;
78799;SDS011;68148;55.328;86.106;2023-04-06T02:34:55;35.15;;;10.10;;
78799;SDS011;68148;55.328;86.106;2023-04-06T02:37:21;31.77;;;10.88;;
78799;SDS011;68148;55.328;86.106;2023-04-06T02:39:47;35.28;;;8.95;;
78799;SDS011;68148;55.328;86.106;2023-04-06T02:42:14;37.33;;;8.05;;
78799;SDS011;68148;55.328;86.106;2023-04-06T02:44:39;27.27;;;7.85;;
78799;SDS011;68148;55.328;86.106;2023-04-06T02:47:05;25.77;;;6.90;;
78799;SDS011;68148;55.328;86.106;2023-04-06T02:49:31;16.80;;;5.70;;
78799;SDS011;68148;55.328;86.106;2023-04-06T02:51:57;21.13;;;6.20;;
78799;SDS011;68148;55.328;86.106;2023-04-06T02:54:23;16.67;;;5.78;;
78799;SDS011;68148;55.328;86.106;2023-04-06T02:56:48;29.23;;;5.90;;
78799;SDS011;68148;55.328;86.106;2023-04-06T02:59:14;22.15;;;5.40;;
78799;SDS011;68148;55.328;86.106;2023-04-06T03:01:40;16.77;;;5.00;;
78799;SDS011;68148;55.328;86.106;2023-04-06T03:04:06;18.38;;;5.32;;
78799;SDS011;68148;55.328;86.106;2023-04-06T03:06:32;26.48;;;6.13;;
78799;SDS011;68148;55.328;86.106;2023-04-06T03:08:58;13.40;;;4.57;;
78799;SDS011;68148;55.328;86.106;2023-04-06T03:11:24;14.02;;;3.33;;
78799;SDS011;68148;55.328;86.106;2023-04-06T03:13:49;19.23;;;4.93;;
78799;SDS011;68148;55.328;86.106;2023-04-06T03:16:16;13.95;;;4.65;;
78799;SDS011;68148;55.328;86.106;2023-04-06T03:18:42;15.20;;;4.78;;
78799;SDS011;68148;55.328;86.106;2023-04-06T03:21:08;24.15;;;6.38;;
78799;SDS011;68148;55.328;86.106;2023-04-06T03:23:34;11.55;;;3.70;;
78799;SDS011;68148;55.328;86.106;2023-04-06T03:26:00;9.40;;;2.08;;
78799;SDS011;68148;55.328;86.106;2023-04-06T03:28:26;12.50;;;2.83;;
78799;SDS011;68148;55.328;86.106;2023-04-06T03:30:52;4.40;;;1.75;;
78799;SDS011;68148;55.328;86.106;2023-04-06T03:33:19;3.97;;;1.50;;
78799;SDS011;68148;55.328;86.106;2023-04-06T03:35:45;7.80;;;2.05;;
78799;SDS011;68148;55.328;86.106;2023-04-06T03:38:11;6.60;;;1.83;;
78799;SDS011;68148;55.328;86.106;2023-04-06T03:40:37;6.88;;;2.20;;
78799;SDS011;68148;55.328;86.106;2023-04-06T03:43:04;11.20;;;2.20;;
78799;SDS011;68148;55.328;86.106;2023-04-06T03:45:30;10.07;;;2.63;;
78799;SDS011;68148;55.328;86.106;2023-04-06T03:47:56;10.88;;;2.40;;
78799;SDS011;68148;55.328;86.106;2023-04-06T03:50:22;6.80;;;2.05;;
78799;SDS011;68148;55.328;86.106;2023-04-06T03:52:47;3.67;;;1.88;;
78799;SDS011;68148;55.328;86.106;2023-04-06T03:55:15;6.78;;;1.98;;
78799;SDS011;68148;55.328;86.106;2023-04-06T03:57:41;9.07;;;2.10;;
78799;SDS011;68148;55.328;86.106;2023-04-06T04:00:06;5.32;;;2.10;;
78799;SDS011;68148;55.328;86.106;2023-04-06T04:02:33;10.55;;;2.30;;
78799;SDS011;68148;55.328;86.106;2023-04-06T04:04:58;10.85;;;2.50;;
78799;SDS011;68148;55.328;86.106;2023-04-06T04:07:24;6.20;;;2.20;;
78799;SDS011;68148;55.328;86.106;2023-04-06T04:09:50;8.75;;;2.70;;
78799;SDS011;68148;55.328;86.106;2023-04-06T04:12:16;9.70;;;3.22;;
78799;SDS011;68148;55.328;86.106;2023-04-06T04:14:42;16.80;;;3.10;;
78799;SDS011;68148;55.328;86.106;2023-04-06T04:17:08;11.90;;;2.33;;
78799;SDS011;68148;55.328;86.106;2023-04-06T04:19:34;12.60;;;2.45;;
78799;SDS011;68148;55.328;86.106;2023-04-06T04:22:00;7.55;;;1.75;;
78799;SDS011;68148;55.328;86.106;2023-04-06T04:24:25;8.80;;;2.47;;
78799;SDS011;68148;55.328;86.106;2023-04-06T04:26:52;13.35;;;2.65;;
78799;SDS011;68148;55.328;86.106;2023-04-06T04:29:18;9.05;;;2.35;;
78799;SDS011;68148;55.328;86.106;2023-04-06T04:31:44;14.25;;;2.85;;
78799;SDS011;68148;55.328;86.106;2023-04-06T04:34:11;8.35;;;2.53;;
78799;SDS011;68148;55.328;86.106;2023-04-06T04:36:36;6.95;;;2.28;;
78799;SDS011;68148;55.328;86.106;2023-04-06T04:39:02;9.05;;;2.70;;
78799;SDS011;68148;55.328;86.106;2023-04-06T04:41:30;11.93;;;2.47;;
78799;SDS011;68148;55.328;86.106;2023-04-06T04:43:56;7.55;;;2.50;;
78799;SDS011;68148;55.328;86.106;2023-04-06T04:46:22;7.28;;;2.33;;
78799;SDS011;68148;55.328;86.106;2023-04-06T04:48:48;6.82;;;2.60;;
78799;SDS011;68148;55.328;86.106;2023-04-06T04:51:15;12.00;;;2.92;;
78799;SDS011;68148;55.328;86.106;2023-04-06T04:53:40;13.23;;;2.78;;
78799;SDS011;68148;55.328;86.106;2023-04-06T04:56:06;6.20;;;2.28;;
78799;SDS011;68148;55.328;86.106;2023-04-06T04:58:32;8.98;;;2.30;;
78799;SDS011;68148;55.328;86.106;2023-04-06T05:01:01;11.07;;;1.75;;
78799;SDS011;68148;55.328;86.106;2023-04-06T05:03:26;11.40;;;2.15;;
78799;SDS011;68148;55.328;86.106;2023-04-06T05:05:54;8.85;;;2.53;;
78799;SDS011;68148;55.328;86.106;2023-04-06T05:10:46;6.68;;;1.95;;
78799;SDS011;68148;55.328;86.106;2023-04-06T05:13:13;6.35;;;2.30;;
78799;SDS011;68148;55.328;86.106;2023-04-06T05:15:39;7.60;;;2.42;;
78799;SDS011;68148;55.328;86.106;2023-04-06T05:18:06;6.47;;;2.13;;
78799;SDS011;68148;55.328;86.106;2023-04-06T05:20:34;8.88;;;2.78;;
78799;SDS011;68148;55.328;86.106;2023-04-06T05:23:01;10.85;;;2.53;;
78799;SDS011;68148;55.328;86.106;2023-04-06T05:25:27;6.45;;;2.42;;
78799;SDS011;68148;55.328;86.106;2023-04-06T05:27:53;12.77;;;3.17;;
78799;SDS011;68148;55.328;86.106;2023-04-06T05:30:19;6.28;;;2.28;;
78799;SDS011;68148;55.328;86.106;2023-04-06T05:32:45;6.13;;;2.15;;
78799;SDS011;68148;55.328;86.106;2023-04-06T05:35:11;16.10;;;2.28;;
78799;SDS011;68148;55.328;86.106;2023-04-06T05:37:38;9.73;;;2.85;;
78799;SDS011;68148;55.328;86.106;2023-04-06T05:40:04;9.02;;;2.70;;
78799;SDS011;68148;55.328;86.106;2023-04-06T05:42:40;10.35;;;2.58;;
78799;SDS011;68148;55.328;86.106;2023-04-06T05:45:08;8.27;;;2.45;;
78799;SDS011;68148;55.328;86.106;2023-04-06T05:47:35;8.48;;;2.30;;
78799;SDS011;68148;55.328;86.106;2023-04-06T05:50:02;8.85;;;2.33;;
78799;SDS011;68148;55.328;86.106;2023-04-06T05:52:29;8.95;;;1.90;;
78799;SDS011;68148;55.328;86.106;2023-04-06T05:54:55;5.40;;;1.92;;
78799;SDS011;68148;55.328;86.106;2023-04-06T05:57:20;13.63;;;2.20;;
78799;SDS011;68148;55.328;86.106;2023-04-06T05:59:46;9.65;;;2.13;;
78799;SDS011;68148;55.328;86.106;2023-04-06T06:02:12;6.43;;;1.70;;
78799;SDS011;68148;55.328;86.106;2023-04-06T06:04:37;9.45;;;1.98;;
78799;SDS011;68148;55.328;86.106;2023-04-06T06:07:03;9.25;;;1.85;;
78799;SDS011;68148;55.328;86.106;2023-04-06T06:09:29;7.03;;;1.65;;
78799;SDS011;68148;55.328;86.106;2023-04-06T06:11:55;5.47;;;1.70;;
78799;SDS011;68148;55.328;86.106;2023-04-06T06:14:21;6.22;;;1.65;;
78799;SDS011;68148;55.328;86.106;2023-04-06T06:16:47;7.15;;;1.17;;
78799;SDS011;68148;55.328;86.106;2023-04-06T06:19:13;4.18;;;1.48;;
78799;SDS011;68148;55.328;86.106;2023-04-06T06:21:39;7.75;;;1.95;;
78799;SDS011;68148;55.328;86.106;2023-04-06T06:24:06;4.13;;;1.85;;
78799;SDS011;68148;55.328;86.106;2023-04-06T06:26:35;7.57;;;1.98;;
78799;SDS011;68148;55.328;86.106;2023-04-06T06:29:01;8.65;;;2.75;;
78799;SDS011;68148;55.328;86.106;2023-04-06T06:31:27;8.02;;;2.20;;
78799;SDS011;68148;55.328;86.106;2023-04-06T06:33:53;11.60;;;2.88;;
78799;SDS011;68148;55.328;86.106;2023-04-06T06:36:18;8.90;;;2.83;;
78799;SDS011;68148;55.328;86.106;2023-04-06T06:38:44;7.63;;;2.72;;
78799;SDS011;68148;55.328;86.106;2023-04-06T06:41:10;9.55;;;2.75;;
78799;SDS011;68148;55.328;86.106;2023-04-06T06:43:36;10.15;;;3.17;;
78799;SDS011;68148;55.328;86.106;2023-04-06T06:46:03;9.43;;;3.13;;
78799;SDS011;68148;55.328;86.106;2023-04-06T06:48:29;15.38;;;3.35;;
78799;SDS011;68148;55.328;86.106;2023-04-06T06:50:55;9.43;;;2.97;;
78799;SDS011;68148;55.328;86.106;2023-04-06T06:53:22;11.32;;;3.60;;
78799;SDS011;68148;55.328;86.106;2023-04-06T06:55:49;9.25;;;2.40;;
78799;SDS011;68148;55.328;86.106;2023-04-06T06:58:15;9.25;;;1.70;;
78799;SDS011;68148;55.328;86.106;2023-04-06T07:00:43;3.45;;;1.45;;
78799;SDS011;68148;55.328;86.106;2023-04-06T07:03:09;10.43;;;1.60;;
78799;SDS011;68148;55.328;86.106;2023-04-06T07:05:34;9.98;;;1.40;;
78799;SDS011;68148;55.328;86.106;2023-04-06T07:08:00;7.57;;;1.40;;
78799;SDS011;68148;55.328;86.106;2023-04-06T07:10:26;3.15;;;1.20;;
78799;SDS011;68148;55.328;86.106;2023-04-06T07:12:52;2.05;;;0.90;;
78799;SDS011;68148;55.328;86.106;2023-04-06T07:15:19;3.80;;;1.05;;
78799;SDS011;68148;55.328;86.106;2023-04-06T07:17:46;5.75;;;1.50;;
78799;SDS011;68148;55.328;86.106;2023-04-06T07:20:12;4.38;;;1.23;;
78799;SDS011;68148;55.328;86.106;2023-04-06T07:22:40;5.75;;;1.15;;
78799;SDS011;68148;55.328;86.106;2023-04-06T07:25:07;7.72;;;1.27;;
78799;SDS011;68148;55.328;86.106;2023-04-06T07:27:33;3.15;;;1.15;;
78799;SDS011;68148;55.328;86.106;2023-04-06T07:29:59;2.80;;;1.13;;
78799;SDS011;68148;55.328;86.106;2023-04-06T07:32:25;8.05;;;1.30;;
78799;SDS011;68148;55.328;86.106;2023-04-06T07:34:55;4.47;;;1.90;;
78799;SDS011;68148;55.328;86.106;2023-04-06T07:37:21;12.43;;;1.40;;
78799;SDS011;68148;55.328;86.106;2023-04-06T07:39:47;20.42;;;1.92;;
78799;SDS011;68148;55.328;86.106;2023-04-06T07:42:13;2.67;;;0.82;;
78799;SDS011;68148;55.328;86.106;2023-04-06T07:44:39;7.15;;;1.40;;
78799;SDS011;68148;55.328;86.106;2023-04-06T07:47:04;6.45;;;1.13;;
78799;SDS011;68148;55.328;86.106;2023-04-06T07:49:31;3.05;;;0.93;;
78799;SDS011;68148;55.328;86.106;2023-04-06T07:51:56;5.15;;;1.42;;
78799;SDS011;68148;55.328;86.106;2023-04-06T07:54:22;15.00;;;1.25;;
78799;SDS011;68148;55.328;86.106;2023-04-06T07:56:49;4.82;;;1.00;;
78799;SDS011;68148;55.328;86.106;2023-04-06T07:59:15;4.32;;;1.10;;
78799;SDS011;68148;55.328;86.106;2023-04-06T08:01:41;2.90;;;1.10;;
78799;SDS011;68148;55.328;86.106;2023-04-06T08:04:06;3.30;;;1.10;;
78799;SDS011;68148;55.328;86.106;2023-04-06T08:06:32;3.08;;;1.08;;
78799;SDS011;68148;55.328;86.106;2023-04-06T08:08:58;2.97;;;1.45;;
78799;SDS011;68148;55.328;86.106;2023-04-06T08:11:24;20.70;;;2.13;;
78799;SDS011;68148;55.328;86.106;2023-04-06T08:13:50;3.85;;;0.93;;
78799;SDS011;68148;55.328;86.106;2023-04-06T08:16:17;8.82;;;1.48;;
78799;SDS011;68148;55.328;86.106;2023-04-06T08:18:42;4.70;;;1.20;;
78799;SDS011;68148;55.328;86.106;2023-04-06T08:21:08;9.38;;;1.60;;
78799;SDS011;68148;55.328;86.106;2023-04-06T08:23:34;4.38;;;1.20;;
78799;SDS011;68148;55.328;86.106;2023-04-06T08:26:00;6.65;;;1.25;;
78799;SDS011;68148;55.328;86.106;2023-04-06T08:28:25;7.90;;;1.25;;
78799;SDS011;68148;55.328;86.106;2023-04-06T08:30:52;10.32;;;1.23;;
78799;SDS011;68148;55.328;86.106;2023-04-06T08:33:17;2.85;;;1.10;;
78799;SDS011;68148;55.328;86.106;2023-04-06T08:35:43;5.63;;;1.13;;
78799;SDS011;68148;55.328;86.106;2023-04-06T08:38:09;4.38;;;1.10;;
78799;SDS011;68148;55.328;86.106;2023-04-06T08:40:38;6.75;;;1.20;;
78799;SDS011;68148;55.328;86.106;2023-04-06T08:43:09;2.85;;;0.80;;
78799;SDS011;68148;55.328;86.106;2023-04-06T08:48:06;8.75;;;1.38;;
78799;SDS011;68148;55.328;86.106;2023-04-06T08:50:33;5.38;;;1.63;;
78799;SDS011;68148;55.328;86.106;2023-04-06T08:52:59;6.63;;;1.70;;
78799;SDS011;68148;55.328;86.106;2023-04-06T08:55:26;3.65;;;1.45;;
78799;SDS011;68148;55.328;86.106;2023-04-06T08:57:52;8.88;;;1.50;;
78799;SDS011;68148;55.328;86.106;2023-04-06T09:00:20;6.75;;;1.50;;
78799;SDS011;68148;55.328;86.106;2023-04-06T09:02:49;5.80;;;1.20;;
78799;SDS011;68148;55.328;86.106;2023-04-06T09:05:17;3.40;;;1.25;;
78799;SDS011;68148;55.328;86.106;2023-04-06T09:07:44;4.22;;;1.10;;
78799;SDS011;68148;55.328;86.106;2023-04-06T09:10:10;8.90;;;1.52;;
78799;SDS011;68148;55.328;86.106;2023-04-06T09:12:36;2.60;;;1.15;;
78799;SDS011;68148;55.328;86.106;2023-04-06T09:15:02;5.72;;;1.05;;
78799;SDS011;68148;55.328;86.106;2023-04-06T09:17:29;8.18;;;1.42;;
78799;SDS011;68148;55.328;86.106;2023-04-06T09:19:56;3.97;;;0.88;;
78799;SDS011;68148;55.328;86.106;2023-04-06T09:22:22;5.13;;;0.98;;
78799;SDS011;68148;55.328;86.106;2023-04-06T09:24:49;2.88;;;0.73;;
78799;SDS011;68148;55.328;86.106;2023-04-06T09:27:16;15.23;;;2.00;;
78799;SDS011;68148;55.328;86.106;2023-04-06T09:29:43;9.38;;;1.25;;
78799;SDS011;68148;55.328;86.106;2023-04-06T09:32:10;11.40;;;1.40;;
78799;SDS011;68148;55.328;86.106;2023-04-06T09:34:40;4.18;;;1.25;;
78799;SDS011;68148;55.328;86.106;2023-04-06T09:37:15;11.55;;;1.23;;
78799;SDS011;68148;55.328;86.106;2023-04-06T09:39:43;4.50;;;1.35;;
78799;SDS011;68148;55.328;86.106;2023-04-06T09:42:09;3.42;;;1.10;;
78799;SDS011;68148;55.328;86.106;2023-04-06T09:44:36;10.00;;;1.20;;
78799;SDS011;68148;55.328;86.106;2023-04-06T09:47:03;5.22;;;1.00;;
78799;SDS011;68148;55.328;86.106;2023-04-06T09:49:31;11.65;;;1.60;;
78799;SDS011;68148;55.328;86.106;2023-04-06T09:51:59;4.60;;;0.93;;
78799;SDS011;68148;55.328;86.106;2023-04-06T09:54:30;7.13;;;1.40;;
78799;SDS011;68148;55.328;86.106;2023-04-06T10:02:30;7.32;;;1.33;;
78799;SDS011;68148;55.328;86.106;2023-04-06T10:05:09;5.35;;;1.23;;
78799;SDS011;68148;55.328;86.106;2023-04-06T10:07:45;7.88;;;1.38;;
78799;SDS011;68148;55.328;86.106;2023-04-06T10:10:13;5.80;;;1.52;;
78799;SDS011;68148;55.328;86.106;2023-04-06T10:12:40;6.78;;;1.25;;
78799;SDS011;68148;55.328;86.106;2023-04-06T10:15:07;12.40;;;1.50;;
78799;SDS011;68148;55.328;86.106;2023-04-06T10:17:35;2.17;;;0.73;;
78799;SDS011;68148;55.328;86.106;2023-04-06T10:20:06;5.63;;;1.10;;
78799;SDS011;68148;55.328;86.106;2023-04-06T10:22:54;10.80;;;1.65;;
78799;SDS011;68148;55.328;86.106;2023-04-06T10:25:27;14.73;;;1.38;;
78799;SDS011;68148;55.328;86.106;2023-04-06T10:30:26;3.50;;;0.90;;
78799;SDS011;68148;55.328;86.106;2023-04-06T10:32:53;5.50;;;0.80;;
78799;SDS011;68148;55.328;86.106;2023-04-06T10:35:19;5.10;;;0.70;;
78799;SDS011;68148;55.328;86.106;2023-04-06T10:40:26;7.93;;;1.27;;
78799;SDS011;68148;55.328;86.106;2023-04-06T10:42:53;5.45;;;1.20;;
78799;SDS011;68148;55.328;86.106;2023-04-06T10:45:31;12.02;;;0.85;;
78799;SDS011;68148;55.328;86.106;2023-04-06T10:47:57;5.50;;;0.63;;
78799;SDS011;68148;55.328;86.106;2023-04-06T10:50:23;10.93;;;1.45;;
78799;SDS011;68148;55.328;86.106;2023-04-06T10:53:02;2.92;;;0.75;;
78799;SDS011;68148;55.328;86.106;2023-04-06T10:55:28;4.50;;;1.20;;
78799;SDS011;68148;55.328;86.106;2023-04-06T10:57:54;1.85;;;0.80;;
78799;SDS011;68148;55.328;86.106;2023-04-06T11:00:20;10.27;;;1.10;;
78799;SDS011;68148;55.328;86.106;2023-04-06T11:02:46;3.40;;;1.00;;
78799;SDS011;68148;55.328;86.106;2023-04-06T11:05:12;6.95;;;1.50;;
78799;SDS011;68148;55.328;86.106;2023-04-06T11:07:39;6.25;;;1.08;;
78799;SDS011;68148;55.328;86.106;2023-04-06T11:10:06;5.43;;;1.00;;
78799;SDS011;68148;55.328;86.106;2023-04-06T11:12:33;8.25;;;1.13;;
78799;SDS011;68148;55.328;86.106;2023-04-06T11:15:00;7.13;;;1.42;;
78799;SDS011;68148;55.328;86.106;2023-04-06T11:17:29;5.05;;;1.08;;
78799;SDS011;68148;55.328;86.106;2023-04-06T11:19:59;4.07;;;0.63;;
78799;SDS011;68148;55.328;86.106;2023-04-06T11:22:25;9.90;;;1.30;;
78799;SDS011;68148;55.328;86.106;2023-04-06T11:24:52;10.02;;;1.60;;
78799;SDS011;68148;55.328;86.106;2023-04-06T11:27:19;6.57;;;1.35;;
78799;SDS011;68148;55.328;86.106;2023-04-06T11:29:45;10.43;;;1.13;;
78799;SDS011;68148;55.328;86.106;2023-04-06T11:32:11;10.88;;;1.08;;
78799;SDS011;68148;55.328;86.106;2023-04-06T11:34:44;3.08;;;0.80;;
78799;SDS011;68148;55.328;86.106;2023-04-06T11:37:12;4.75;;;0.90;;
78799;SDS011;68148;55.328;86.106;2023-04-06T11:39:39;4.63;;;1.00;;
78799;SDS011;68148;55.328;86.106;2023-04-06T11:42:07;13.80;;;1.45;;
78799;SDS011;68148;55.328;86.106;2023-04-06T11:44:43;4.55;;;1.05;;
78799;SDS011;68148;55.328;86.106;2023-04-06T11:47:09;8.93;;;1.10;;
78799;SDS011;68148;55.328;86.106;2023-04-06T11:49:40;4.72;;;0.60;;
78799;SDS011;68148;55.328;86.106;2023-04-06T11:52:21;6.30;;;0.90;;
78799;SDS011;68148;55.328;86.106;2023-04-06T11:54:49;19.38;;;3.80;;
78799;SDS011;68148;55.328;86.106;2023-04-06T11:57:16;24.15;;;4.30;;
78799;SDS011;68148;55.328;86.106;2023-04-06T11:59:43;17.90;;;3.72;;
78799;SDS011;68148;55.328;86.106;2023-04-06T12:02:09;21.52;;;4.05;;
78799;SDS011;68148;55.328;86.106;2023-04-06T12:04:35;20.95;;;4.63;;
78799;SDS011;68148;55.328;86.106;2023-04-06T12:07:01;17.60;;;4.53;;
78799;SDS011;68148;55.328;86.106;2023-04-06T12:09:28;15.48;;;4.63;;
78799;SDS011;68148;55.328;86.106;2023-04-06T12:11:55;16.88;;;5.10;;
78799;SDS011;68148;55.328;86.106;2023-04-06T12:14:22;27.33;;;5.20;;
78799;SDS011;68148;55.328;86.106;2023-04-06T12:16:48;11.73;;;4.00;;
78799;SDS011;68148;55.328;86.106;2023-04-06T12:19:14;13.90;;;3.33;;
78799;SDS011;68148;55.328;86.106;2023-04-06T12:21:40;16.98;;;3.58;;
78799;SDS011;68148;55.328;86.106;2023-04-06T12:24:06;9.18;;;2.13;;
78799;SDS011;68148;55.328;86.106;2023-04-06T12:26:32;9.13;;;2.13;;
78799;SDS011;68148;55.328;86.106;2023-04-06T12:28:59;11.50;;;2.72;;
78799;SDS011;68148;55.328;86.106;2023-04-06T12:31:25;12.13;;;2.53;;
78799;SDS011;68148;55.328;86.106;2023-04-06T12:33:51;10.60;;;2.40;;
78799;SDS011;68148;55.328;86.106;2023-04-06T12:36:18;11.88;;;2.13;;
78799;SDS011;68148;55.328;86.106;2023-04-06T12:38:48;10.45;;;2.10;;
78799;SDS011;68148;55.328;86.106;2023-04-06T12:41:15;10.65;;;2.00;;
78799;SDS011;68148;55.328;86.106;2023-04-06T12:43:42;12.18;;;2.67;;
78799;SDS011;68148;55.328;86.106;2023-04-06T12:46:08;10.90;;;2.28;;
78799;SDS011;68148;55.328;86.106;2023-04-06T12:48:36;9.95;;;2.38;;
78799;SDS011;68148;55.328;86.106;2023-04-06T12:51:02;7.15;;;1.92;;
78799;SDS011;68148;55.328;86.106;2023-04-06T12:53:30;6.70;;;2.10;;
78799;SDS011;68148;55.328;86.106;2023-04-06T12:55:57;11.60;;;2.03;;
78799;SDS011;68148;55.328;86.106;2023-04-06T12:58:24;11.10;;;2.50;;
78799;SDS011;68148;55.328;86.106;2023-04-06T13:00:50;15.43;;;2.90;;
78799;SDS011;68148;55.328;86.106;2023-04-06T13:03:16;13.98;;;3.65;;
78799;SDS011;68148;55.328;86.106;2023-04-06T13:05:43;16.67;;;3.95;;
78799;SDS011;68148;55.328;86.106;2023-04-06T13:08:09;15.00;;;3.58;;
78799;SDS011;68148;55.328;86.106;2023-04-06T13:10:36;16.73;;;4.22;;
78799;SDS011;68148;55.328;86.106;2023-04-06T13:13:02;18.63;;;4.03;;
78799;SDS011;68148;55.328;86.106;2023-04-06T13:15:28;14.77;;;4.38;;
78799;SDS011;68148;55.328;86.106;2023-04-06T13:17:54;14.73;;;3.95;;
78799;SDS011;68148;55.328;86.106;2023-04-06T13:20:20;21.65;;;3.97;;
78799;SDS011;68148;55.328;86.106;2023-04-06T13:22:46;12.55;;;4.07;;
78799;SDS011;68148;55.328;86.106;2023-04-06T13:25:11;11.20;;;3.42;;
78799;SDS011;68148;55.328;86.106;2023-04-06T13:27:38;11.02;;;4.07;;
78799;SDS011;68148;55.328;86.106;2023-04-06T13:30:05;16.20;;;4.32;;
78799;SDS011;68148;55.328;86.106;2023-04-06T13:32:32;15.85;;;3.70;;
78799;SDS011;68148;55.328;86.106;2023-04-06T13:34:58;17.40;;;3.40;;
78799;SDS011;68148;55.328;86.106;2023-04-06T13:37:24;12.43;;;3.95;;
78799;SDS011;68148;55.328;86.106;2023-04-06T13:39:50;16.48;;;4.18;;
78799;SDS011;68148;55.328;86.106;2023-04-06T13:42:16;11.80;;;3.60;;
78799;SDS011;68148;55.328;86.106;2023-04-06T13:44:42;9.50;;;3.50;;
78799;SDS011;68148;55.328;86.106;2023-04-06T13:47:07;8.63;;;2.88;;
78799;SDS011;68148;55.328;86.106;2023-04-06T13:49:33;10.07;;;2.75;;
78799;SDS011;68148;55.328;86.106;2023-04-06T13:51:59;8.43;;;2.75;;
78799;SDS011;68148;55.328;86.106;2023-04-06T13:54:26;10.07;;;2.25;;
78799;SDS011;68148;55.328;86.106;2023-04-06T13:56:52;8.38;;;2.80;;
78799;SDS011;68148;55.328;86.106;2023-04-06T13:59:18;15.48;;;2.67;;
78799;SDS011;68148;55.328;86.106;2023-04-06T14:01:44;8.80;;;2.42;;
78799;SDS011;68148;55.328;86.106;2023-04-06T14:04:09;9.57;;;2.38;;
78799;SDS011;68148;55.328;86.106;2023-04-06T14:06:36;16.83;;;3.22;;
78799;SDS011;68148;55.328;86.106;2023-04-06T14:09:02;7.82;;;2.60;;
78799;SDS011;68148;55.328;86.106;2023-04-06T14:11:29;13.90;;;2.88;;
78799;SDS011;68148;55.328;86.106;2023-04-06T14:13:56;7.53;;;2.92;;
78799;SDS011;68148;55.328;86.106;2023-04-06T14:16:23;10.18;;;2.75;;
78799;SDS011;68148;55.328;86.106;2023-04-06T14:18:49;11.15;;;4.20;;
78799;SDS011;68148;55.328;86.106;2023-04-06T14:21:15;13.43;;;4.88;;
78799;SDS011;68148;55.328;86.106;2023-04-06T14:23:40;21.52;;;4.88;;
78799;SDS011;68148;55.328;86.106;2023-04-06T14:26:07;19.00;;;5.57;;
78799;SDS011;68148;55.328;86.106;2023-04-06T14:28:33;16.70;;;5.20;;
78799;SDS011;68148;55.328;86.106;2023-04-06T14:31:00;19.65;;;4.25;;
78799;SDS011;68148;55.328;86.106;2023-04-06T14:33:27;22.67;;;5.80;;
78799;SDS011;68148;55.328;86.106;2023-04-06T14:35:53;23.17;;;5.60;;
78799;SDS011;68148;55.328;86.106;2023-04-06T14:38:18;17.98;;;6.07;;
78799;SDS011;68148;55.328;86.106;2023-04-06T14:40:44;22.70;;;5.68;;